sensor_id;sensor_type;location;lat;lon;timestamp;P1;durP1;ratioP1;P2;durP2;ratioP2
74632;SDS011;63139;52.018;8.552;2023-11-19T00:00:16;2.33;;;2.00;;
74632;SDS011;63139;52.018;8.552;2023-11-19T00:02:44;2.97;;;2.33;;
74632;SDS011;63139;52.018;8.552;2023-11-19T00:05:13;1.80;;;1.70;;
74632;SDS011;63139;52.018;8.552;2023-11-19T00:07:41;1.85;;;1.60;;
74632;SDS011;63139;52.018;8.552;2023-11-19T00:10:11;1.40;;;1.30;;
74632;SDS011;63139;52.018;8.552;2023-11-19T00:12:42;1.50;;;1.40;;
74632;SDS011;63139;52.018;8.552;2023-11-19T00:15:11;1.50;;;1.27;;
74632;SDS011;63139;52.018;8.552;2023-11-19T00:17:39;1.40;;;1.30;;
74632;SDS011;63139;52.018;8.552;2023-11-19T00:20:11;1.92;;;1.83;;
74632;SDS011;63139;52.018;8.552;2023-11-19T00:22:39;1.90;;;1.80;;
74632;SDS011;63139;52.018;8.552;2023-11-19T00:25:10;2.05;;;1.95;;
74632;SDS011;63139;52.018;8.552;2023-11-19T00:27:38;2.20;;;2.10;;
74632;SDS011;63139;52.018;8.552;2023-11-19T00:30:07;2.38;;;1.92;;
74632;SDS011;63139;52.018;8.552;2023-11-19T00:32:36;1.70;;;1.60;;
74632;SDS011;63139;52.018;8.552;2023-11-19T00:35:05;1.60;;;1.50;;
74632;SDS011;63139;52.018;8.552;2023-11-19T00:37:36;1.60;;;1.50;;
74632;SDS011;63139;52.018;8.552;2023-11-19T00:40:04;1.75;;;1.65;;
74632;SDS011;63139;52.018;8.552;2023-11-19T00:42:34;1.60;;;1.50;;
74632;SDS011;63139;52.018;8.552;2023-11-19T00:45:04;1.92;;;1.70;;
74632;SDS011;63139;52.018;8.552;2023-11-19T00:47:36;1.88;;;1.77;;
74632;SDS011;63139;52.018;8.552;2023-11-19T00:50:04;2.20;;;2.05;;
74632;SDS011;63139;52.018;8.552;2023-11-19T00:52:32;1.95;;;1.80;;
74632;SDS011;63139;52.018;8.552;2023-11-19T00:55:00;1.95;;;1.85;;
74632;SDS011;63139;52.018;8.552;2023-11-19T00:57:28;2.70;;;2.50;;
74632;SDS011;63139;52.018;8.552;2023-11-19T00:59:56;2.40;;;2.22;;
74632;SDS011;63139;52.018;8.552;2023-11-19T01:02:25;2.15;;;2.00;;
74632;SDS011;63139;52.018;8.552;2023-11-19T01:04:54;2.42;;;1.60;;
74632;SDS011;63139;52.018;8.552;2023-11-19T01:07:22;1.50;;;1.40;;
74632;SDS011;63139;52.018;8.552;2023-11-19T01:09:52;1.98;;;1.30;;
74632;SDS011;63139;52.018;8.552;2023-11-19T01:12:20;1.50;;;1.40;;
74632;SDS011;63139;52.018;8.552;2023-11-19T01:14:48;1.33;;;1.27;;
74632;SDS011;63139;52.018;8.552;2023-11-19T01:17:16;1.50;;;1.40;;
74632;SDS011;63139;52.018;8.552;2023-11-19T01:19:43;1.80;;;1.70;;
74632;SDS011;63139;52.018;8.552;2023-11-19T01:22:12;1.98;;;1.88;;
74632;SDS011;63139;52.018;8.552;2023-11-19T01:24:40;2.00;;;1.90;;
74632;SDS011;63139;52.018;8.552;2023-11-19T01:27:08;2.45;;;1.80;;
74632;SDS011;63139;52.018;8.552;2023-11-19T01:29:36;2.08;;;1.88;;
74632;SDS011;63139;52.018;8.552;2023-11-19T01:32:05;2.58;;;2.38;;
74632;SDS011;63139;52.018;8.552;2023-11-19T01:34:33;2.60;;;2.40;;
74632;SDS011;63139;52.018;8.552;2023-11-19T01:37:01;3.85;;;2.60;;
74632;SDS011;63139;52.018;8.552;2023-11-19T01:39:30;4.85;;;3.05;;
74632;SDS011;63139;52.018;8.552;2023-11-19T01:41:58;4.47;;;3.65;;
74632;SDS011;63139;52.018;8.552;2023-11-19T01:44:25;4.07;;;3.65;;
74632;SDS011;63139;52.018;8.552;2023-11-19T01:46:53;4.60;;;3.58;;
74632;SDS011;63139;52.018;8.552;2023-11-19T01:49:22;4.80;;;4.00;;
74632;SDS011;63139;52.018;8.552;2023-11-19T01:51:51;5.57;;;4.30;;
74632;SDS011;63139;52.018;8.552;2023-11-19T01:54:19;4.65;;;3.70;;
74632;SDS011;63139;52.018;8.552;2023-11-19T01:56:48;4.10;;;3.70;;
74632;SDS011;63139;52.018;8.552;2023-11-19T01:59:16;5.10;;;3.63;;
74632;SDS011;63139;52.018;8.552;2023-11-19T02:01:44;3.53;;;3.22;;
74632;SDS011;63139;52.018;8.552;2023-11-19T02:04:12;3.40;;;3.10;;
74632;SDS011;63139;52.018;8.552;2023-11-19T02:06:40;3.20;;;2.90;;
74632;SDS011;63139;52.018;8.552;2023-11-19T02:09:09;3.38;;;3.05;;
74632;SDS011;63139;52.018;8.552;2023-11-19T02:11:39;2.92;;;2.70;;
74632;SDS011;63139;52.018;8.552;2023-11-19T02:14:08;3.28;;;2.97;;
74632;SDS011;63139;52.018;8.552;2023-11-19T02:16:37;4.50;;;3.00;;
74632;SDS011;63139;52.018;8.552;2023-11-19T02:19:05;4.18;;;2.67;;
74632;SDS011;63139;52.018;8.552;2023-11-19T02:21:34;2.50;;;2.30;;
74632;SDS011;63139;52.018;8.552;2023-11-19T02:24:02;3.17;;;2.88;;
74632;SDS011;63139;52.018;8.552;2023-11-19T02:26:37;2.80;;;2.60;;
74632;SDS011;63139;52.018;8.552;2023-11-19T02:29:08;3.00;;;2.75;;
74632;SDS011;63139;52.018;8.552;2023-11-19T02:31:36;3.60;;;3.30;;
74632;SDS011;63139;52.018;8.552;2023-11-19T02:34:04;3.60;;;3.22;;
74632;SDS011;63139;52.018;8.552;2023-11-19T02:36:32;3.67;;;3.38;;
74632;SDS011;63139;52.018;8.552;2023-11-19T02:39:00;4.15;;;3.80;;
74632;SDS011;63139;52.018;8.552;2023-11-19T02:41:28;4.05;;;3.55;;
74632;SDS011;63139;52.018;8.552;2023-11-19T02:43:55;5.03;;;4.10;;
74632;SDS011;63139;52.018;8.552;2023-11-19T02:46:24;4.35;;;3.95;;
74632;SDS011;63139;52.018;8.552;2023-11-19T02:48:52;5.22;;;4.70;;
74632;SDS011;63139;52.018;8.552;2023-11-19T02:51:20;6.07;;;4.75;;
74632;SDS011;63139;52.018;8.552;2023-11-19T02:53:48;10.00;;;5.20;;
74632;SDS011;63139;52.018;8.552;2023-11-19T02:56:16;8.52;;;5.50;;
74632;SDS011;63139;52.018;8.552;2023-11-19T02:58:51;6.82;;;6.00;;
74632;SDS011;63139;52.018;8.552;2023-11-19T03:01:22;8.90;;;6.80;;
74632;SDS011;63139;52.018;8.552;2023-11-19T03:03:59;10.57;;;6.85;;
74632;SDS011;63139;52.018;8.552;2023-11-19T03:06:29;8.88;;;6.75;;
74632;SDS011;63139;52.018;8.552;2023-11-19T03:08:58;10.90;;;7.05;;
74632;SDS011;63139;52.018;8.552;2023-11-19T03:13:52;10.23;;;7.32;;
74632;SDS011;63139;52.018;8.552;2023-11-19T03:16:20;9.80;;;7.30;;
74632;SDS011;63139;52.018;8.552;2023-11-19T03:18:48;13.45;;;10.18;;
74632;SDS011;63139;52.018;8.552;2023-11-19T03:21:17;13.25;;;9.45;;
74632;SDS011;63139;52.018;8.552;2023-11-19T03:23:45;13.02;;;8.95;;
74632;SDS011;63139;52.018;8.552;2023-11-19T03:26:12;11.80;;;9.13;;
74632;SDS011;63139;52.018;8.552;2023-11-19T03:28:40;14.13;;;9.50;;
74632;SDS011;63139;52.018;8.552;2023-11-19T03:31:08;13.88;;;9.95;;
74632;SDS011;63139;52.018;8.552;2023-11-19T03:33:36;13.00;;;10.10;;
74632;SDS011;63139;52.018;8.552;2023-11-19T03:36:04;12.63;;;8.90;;
74632;SDS011;63139;52.018;8.552;2023-11-19T03:38:35;14.63;;;9.55;;
74632;SDS011;63139;52.018;8.552;2023-11-19T03:41:09;9.95;;;8.52;;
74632;SDS011;63139;52.018;8.552;2023-11-19T03:43:38;14.00;;;9.93;;
74632;SDS011;63139;52.018;8.552;2023-11-19T03:46:15;13.38;;;10.10;;
74632;SDS011;63139;52.018;8.552;2023-11-19T03:48:44;12.25;;;10.23;;
74632;SDS011;63139;52.018;8.552;2023-11-19T03:51:12;15.93;;;10.82;;
74632;SDS011;63139;52.018;8.552;2023-11-19T03:53:43;18.48;;;11.65;;
74632;SDS011;63139;52.018;8.552;2023-11-19T03:56:11;15.95;;;10.77;;
74632;SDS011;63139;52.018;8.552;2023-11-19T03:58:39;13.88;;;9.50;;
74632;SDS011;63139;52.018;8.552;2023-11-19T04:01:10;16.58;;;9.93;;
74632;SDS011;63139;52.018;8.552;2023-11-19T04:03:39;15.82;;;9.88;;
74632;SDS011;63139;52.018;8.552;2023-11-19T04:06:16;14.88;;;9.50;;
74632;SDS011;63139;52.018;8.552;2023-11-19T04:08:46;13.23;;;9.13;;
74632;SDS011;63139;52.018;8.552;2023-11-19T04:11:13;14.32;;;9.45;;
74632;SDS011;63139;52.018;8.552;2023-11-19T04:13:41;14.68;;;9.30;;
74632;SDS011;63139;52.018;8.552;2023-11-19T04:16:10;14.68;;;8.80;;
74632;SDS011;63139;52.018;8.552;2023-11-19T04:18:38;15.27;;;8.07;;
74632;SDS011;63139;52.018;8.552;2023-11-19T04:21:06;10.05;;;7.78;;
74632;SDS011;63139;52.018;8.552;2023-11-19T04:23:34;10.68;;;8.55;;
74632;SDS011;63139;52.018;8.552;2023-11-19T04:26:03;14.07;;;7.35;;
74632;SDS011;63139;52.018;8.552;2023-11-19T04:28:35;10.15;;;7.13;;
74632;SDS011;63139;52.018;8.552;2023-11-19T04:31:04;13.13;;;7.60;;
74632;SDS011;63139;52.018;8.552;2023-11-19T04:33:32;9.98;;;7.03;;
74632;SDS011;63139;52.018;8.552;2023-11-19T04:36:00;13.55;;;6.82;;
74632;SDS011;63139;52.018;8.552;2023-11-19T04:38:28;9.93;;;6.32;;
74632;SDS011;63139;52.018;8.552;2023-11-19T04:40:56;15.55;;;7.70;;
74632;SDS011;63139;52.018;8.552;2023-11-19T04:43:26;13.35;;;6.45;;
74632;SDS011;63139;52.018;8.552;2023-11-19T04:45:54;10.95;;;5.43;;
74632;SDS011;63139;52.018;8.552;2023-11-19T04:48:21;11.00;;;5.68;;
74632;SDS011;63139;52.018;8.552;2023-11-19T04:50:49;11.15;;;5.53;;
74632;SDS011;63139;52.018;8.552;2023-11-19T04:53:18;13.70;;;5.10;;
74632;SDS011;63139;52.018;8.552;2023-11-19T04:55:46;12.00;;;5.32;;
74632;SDS011;63139;52.018;8.552;2023-11-19T04:58:14;11.80;;;4.65;;
74632;SDS011;63139;52.018;8.552;2023-11-19T05:00:43;17.63;;;5.35;;
74632;SDS011;63139;52.018;8.552;2023-11-19T05:03:11;15.30;;;5.03;;
74632;SDS011;63139;52.018;8.552;2023-11-19T05:05:39;13.07;;;4.60;;
74632;SDS011;63139;52.018;8.552;2023-11-19T05:08:07;8.88;;;4.07;;
74632;SDS011;63139;52.018;8.552;2023-11-19T05:10:34;15.90;;;4.15;;
74632;SDS011;63139;52.018;8.552;2023-11-19T05:13:03;17.63;;;4.53;;
74632;SDS011;63139;52.018;8.552;2023-11-19T05:15:31;20.83;;;5.13;;
74632;SDS011;63139;52.018;8.552;2023-11-19T05:18:01;16.48;;;4.10;;
74632;SDS011;63139;52.018;8.552;2023-11-19T05:20:28;17.27;;;4.30;;
74632;SDS011;63139;52.018;8.552;2023-11-19T05:22:56;15.23;;;4.57;;
74632;SDS011;63139;52.018;8.552;2023-11-19T05:25:26;21.77;;;4.47;;
74632;SDS011;63139;52.018;8.552;2023-11-19T05:27:54;16.10;;;4.38;;
74632;SDS011;63139;52.018;8.552;2023-11-19T05:30:22;10.73;;;3.50;;
74632;SDS011;63139;52.018;8.552;2023-11-19T05:32:49;11.77;;;3.30;;
74632;SDS011;63139;52.018;8.552;2023-11-19T05:35:18;16.40;;;3.60;;
74632;SDS011;63139;52.018;8.552;2023-11-19T05:37:46;13.18;;;3.47;;
74632;SDS011;63139;52.018;8.552;2023-11-19T05:40:14;12.13;;;3.53;;
74632;SDS011;63139;52.018;8.552;2023-11-19T05:42:42;17.33;;;3.50;;
74632;SDS011;63139;52.018;8.552;2023-11-19T05:45:11;17.75;;;3.78;;
74632;SDS011;63139;52.018;8.552;2023-11-19T05:47:39;14.15;;;3.50;;
74632;SDS011;63139;52.018;8.552;2023-11-19T05:50:07;19.08;;;4.15;;
74632;SDS011;63139;52.018;8.552;2023-11-19T05:52:38;16.02;;;3.60;;
74632;SDS011;63139;52.018;8.552;2023-11-19T05:55:06;13.68;;;3.72;;
74632;SDS011;63139;52.018;8.552;2023-11-19T05:57:36;17.92;;;4.00;;
74632;SDS011;63139;52.018;8.552;2023-11-19T06:00:09;13.85;;;3.65;;
74632;SDS011;63139;52.018;8.552;2023-11-19T06:02:39;12.52;;;3.50;;
74632;SDS011;63139;52.018;8.552;2023-11-19T06:05:07;12.75;;;3.30;;
74632;SDS011;63139;52.018;8.552;2023-11-19T06:07:37;18.17;;;4.07;;
74632;SDS011;63139;52.018;8.552;2023-11-19T06:10:05;15.07;;;3.72;;
74632;SDS011;63139;52.018;8.552;2023-11-19T06:12:36;19.63;;;4.00;;
74632;SDS011;63139;52.018;8.552;2023-11-19T06:17:54;18.35;;;3.92;;
74632;SDS011;63139;52.018;8.552;2023-11-19T06:20:22;17.48;;;3.92;;
74632;SDS011;63139;52.018;8.552;2023-11-19T06:22:51;12.90;;;3.53;;
74632;SDS011;63139;52.018;8.552;2023-11-19T06:25:19;16.80;;;4.40;;
74632;SDS011;63139;52.018;8.552;2023-11-19T06:27:47;15.43;;;4.13;;
74632;SDS011;63139;52.018;8.552;2023-11-19T06:30:15;22.15;;;4.03;;
74632;SDS011;63139;52.018;8.552;2023-11-19T06:32:43;16.88;;;4.30;;
74632;SDS011;63139;52.018;8.552;2023-11-19T06:35:10;16.67;;;3.75;;
74632;SDS011;63139;52.018;8.552;2023-11-19T06:37:40;17.63;;;5.35;;
74632;SDS011;63139;52.018;8.552;2023-11-19T06:40:10;16.80;;;4.35;;
74632;SDS011;63139;52.018;8.552;2023-11-19T06:42:38;17.80;;;4.68;;
74632;SDS011;63139;52.018;8.552;2023-11-19T06:45:06;14.48;;;3.90;;
74632;SDS011;63139;52.018;8.552;2023-11-19T06:47:35;19.70;;;4.15;;
74632;SDS011;63139;52.018;8.552;2023-11-19T06:50:03;13.00;;;3.90;;
74632;SDS011;63139;52.018;8.552;2023-11-19T06:52:33;19.67;;;4.57;;
74632;SDS011;63139;52.018;8.552;2023-11-19T06:55:01;16.33;;;4.10;;
74632;SDS011;63139;52.018;8.552;2023-11-19T06:57:33;16.80;;;3.90;;
74632;SDS011;63139;52.018;8.552;2023-11-19T07:00:00;20.75;;;4.20;;
74632;SDS011;63139;52.018;8.552;2023-11-19T07:02:31;18.80;;;4.22;;
74632;SDS011;63139;52.018;8.552;2023-11-19T07:04:59;22.45;;;4.75;;
74632;SDS011;63139;52.018;8.552;2023-11-19T07:07:27;23.80;;;4.57;;
74632;SDS011;63139;52.018;8.552;2023-11-19T07:09:55;24.67;;;4.80;;
74632;SDS011;63139;52.018;8.552;2023-11-19T07:12:23;18.40;;;3.75;;
74632;SDS011;63139;52.018;8.552;2023-11-19T07:14:54;23.13;;;4.28;;
74632;SDS011;63139;52.018;8.552;2023-11-19T07:17:22;27.10;;;4.55;;
74632;SDS011;63139;52.018;8.552;2023-11-19T07:19:51;27.85;;;4.38;;
74632;SDS011;63139;52.018;8.552;2023-11-19T07:22:18;23.05;;;4.30;;
74632;SDS011;63139;52.018;8.552;2023-11-19T07:24:46;20.42;;;4.60;;
74632;SDS011;63139;52.018;8.552;2023-11-19T07:27:14;20.70;;;4.13;;
74632;SDS011;63139;52.018;8.552;2023-11-19T07:29:43;17.23;;;3.72;;
74632;SDS011;63139;52.018;8.552;2023-11-19T07:32:12;24.60;;;4.28;;
74632;SDS011;63139;52.018;8.552;2023-11-19T07:34:40;24.10;;;4.10;;
74632;SDS011;63139;52.018;8.552;2023-11-19T07:37:08;18.45;;;3.88;;
74632;SDS011;63139;52.018;8.552;2023-11-19T07:39:35;18.58;;;3.78;;
74632;SDS011;63139;52.018;8.552;2023-11-19T07:42:07;20.73;;;3.70;;
74632;SDS011;63139;52.018;8.552;2023-11-19T07:44:35;23.25;;;4.30;;
74632;SDS011;63139;52.018;8.552;2023-11-19T07:47:03;18.80;;;3.65;;
74632;SDS011;63139;52.018;8.552;2023-11-19T07:49:32;28.08;;;5.00;;
74632;SDS011;63139;52.018;8.552;2023-11-19T07:52:00;24.88;;;4.40;;
74632;SDS011;63139;52.018;8.552;2023-11-19T07:54:29;22.33;;;4.03;;
74632;SDS011;63139;52.018;8.552;2023-11-19T07:56:56;26.67;;;3.88;;
74632;SDS011;63139;52.018;8.552;2023-11-19T07:59:24;21.33;;;4.00;;
74632;SDS011;63139;52.018;8.552;2023-11-19T08:01:52;26.05;;;4.80;;
74632;SDS011;63139;52.018;8.552;2023-11-19T08:04:20;17.58;;;3.88;;
74632;SDS011;63139;52.018;8.552;2023-11-19T08:06:49;19.23;;;3.90;;
74632;SDS011;63139;52.018;8.552;2023-11-19T08:09:19;23.58;;;3.97;;
74632;SDS011;63139;52.018;8.552;2023-11-19T08:11:47;21.42;;;4.10;;
74632;SDS011;63139;52.018;8.552;2023-11-19T08:14:16;23.65;;;4.43;;
74632;SDS011;63139;52.018;8.552;2023-11-19T08:16:44;18.42;;;3.28;;
74632;SDS011;63139;52.018;8.552;2023-11-19T08:19:11;18.65;;;3.88;;
74632;SDS011;63139;52.018;8.552;2023-11-19T08:21:39;19.10;;;4.18;;
74632;SDS011;63139;52.018;8.552;2023-11-19T08:24:08;28.85;;;4.97;;
74632;SDS011;63139;52.018;8.552;2023-11-19T08:26:36;17.10;;;4.05;;
74632;SDS011;63139;52.018;8.552;2023-11-19T08:29:04;26.23;;;4.47;;
74632;SDS011;63139;52.018;8.552;2023-11-19T08:31:32;25.10;;;4.68;;
74632;SDS011;63139;52.018;8.552;2023-11-19T08:33:59;26.23;;;3.97;;
74632;SDS011;63139;52.018;8.552;2023-11-19T08:36:27;18.40;;;3.70;;
74632;SDS011;63139;52.018;8.552;2023-11-19T08:38:55;24.33;;;4.53;;
74632;SDS011;63139;52.018;8.552;2023-11-19T08:41:24;19.38;;;4.05;;
74632;SDS011;63139;52.018;8.552;2023-11-19T08:43:52;23.65;;;4.55;;
74632;SDS011;63139;52.018;8.552;2023-11-19T08:46:20;19.40;;;3.60;;
74632;SDS011;63139;52.018;8.552;2023-11-19T08:48:48;19.85;;;3.95;;
74632;SDS011;63139;52.018;8.552;2023-11-19T08:53:42;22.33;;;4.40;;
74632;SDS011;63139;52.018;8.552;2023-11-19T08:56:10;18.25;;;4.03;;
74632;SDS011;63139;52.018;8.552;2023-11-19T08:58:39;16.50;;;3.50;;
74632;SDS011;63139;52.018;8.552;2023-11-19T09:01:07;19.85;;;3.97;;
74632;SDS011;63139;52.018;8.552;2023-11-19T09:03:36;23.08;;;4.63;;
74632;SDS011;63139;52.018;8.552;2023-11-19T09:06:04;20.40;;;3.78;;
74632;SDS011;63139;52.018;8.552;2023-11-19T09:08:32;24.05;;;5.45;;
74632;SDS011;63139;52.018;8.552;2023-11-19T09:11:00;18.50;;;3.70;;
74632;SDS011;63139;52.018;8.552;2023-11-19T09:13:28;25.30;;;5.03;;
74632;SDS011;63139;52.018;8.552;2023-11-19T09:15:57;20.00;;;4.00;;
74632;SDS011;63139;52.018;8.552;2023-11-19T09:18:29;17.50;;;3.95;;
74632;SDS011;63139;52.018;8.552;2023-11-19T09:20:58;20.77;;;4.15;;
74632;SDS011;63139;52.018;8.552;2023-11-19T09:23:26;22.90;;;4.95;;
74632;SDS011;63139;52.018;8.552;2023-11-19T09:25:54;23.00;;;3.70;;
74632;SDS011;63139;52.018;8.552;2023-11-19T09:28:22;24.90;;;4.75;;
74632;SDS011;63139;52.018;8.552;2023-11-19T09:30:50;19.45;;;3.92;;
74632;SDS011;63139;52.018;8.552;2023-11-19T09:33:19;24.95;;;4.55;;
74632;SDS011;63139;52.018;8.552;2023-11-19T09:35:47;23.00;;;4.00;;
74632;SDS011;63139;52.018;8.552;2023-11-19T09:38:17;21.13;;;4.28;;
74632;SDS011;63139;52.018;8.552;2023-11-19T09:40:44;23.70;;;4.43;;
74632;SDS011;63139;52.018;8.552;2023-11-19T09:43:13;19.77;;;4.03;;
74632;SDS011;63139;52.018;8.552;2023-11-19T09:45:45;24.25;;;4.47;;
74632;SDS011;63139;52.018;8.552;2023-11-19T09:48:16;23.83;;;4.65;;
74632;SDS011;63139;52.018;8.552;2023-11-19T09:50:46;18.25;;;4.22;;
74632;SDS011;63139;52.018;8.552;2023-11-19T09:53:15;21.90;;;4.40;;
74632;SDS011;63139;52.018;8.552;2023-11-19T09:55:43;23.33;;;4.43;;
74632;SDS011;63139;52.018;8.552;2023-11-19T09:58:12;22.52;;;4.15;;
74632;SDS011;63139;52.018;8.552;2023-11-19T10:00:42;16.48;;;3.42;;
74632;SDS011;63139;52.018;8.552;2023-11-19T10:03:16;17.88;;;3.83;;
74632;SDS011;63139;52.018;8.552;2023-11-19T10:05:46;14.80;;;3.50;;
74632;SDS011;63139;52.018;8.552;2023-11-19T10:08:13;21.23;;;4.43;;
74632;SDS011;63139;52.018;8.552;2023-11-19T10:10:42;19.42;;;4.05;;
74632;SDS011;63139;52.018;8.552;2023-11-19T10:13:10;24.33;;;4.32;;
74632;SDS011;63139;52.018;8.552;2023-11-19T10:15:38;24.58;;;4.32;;
74632;SDS011;63139;52.018;8.552;2023-11-19T10:18:06;21.33;;;3.70;;
74632;SDS011;63139;52.018;8.552;2023-11-19T10:20:35;22.10;;;4.13;;
74632;SDS011;63139;52.018;8.552;2023-11-19T10:23:04;24.00;;;4.50;;
74632;SDS011;63139;52.018;8.552;2023-11-19T10:25:32;20.77;;;3.92;;
74632;SDS011;63139;52.018;8.552;2023-11-19T10:28:01;20.45;;;4.45;;
74632;SDS011;63139;52.018;8.552;2023-11-19T10:30:29;19.55;;;3.67;;
74632;SDS011;63139;52.018;8.552;2023-11-19T10:33:07;25.90;;;4.45;;
74632;SDS011;63139;52.018;8.552;2023-11-19T10:38:29;25.13;;;4.88;;
74632;SDS011;63139;52.018;8.552;2023-11-19T10:40:57;21.38;;;4.00;;
74632;SDS011;63139;52.018;8.552;2023-11-19T10:43:25;23.42;;;3.92;;
74632;SDS011;63139;52.018;8.552;2023-11-19T10:45:54;25.23;;;3.95;;
74632;SDS011;63139;52.018;8.552;2023-11-19T10:48:36;19.92;;;3.28;;
74632;SDS011;63139;52.018;8.552;2023-11-19T10:51:04;21.35;;;3.90;;
74632;SDS011;63139;52.018;8.552;2023-11-19T10:53:35;20.23;;;3.92;;
74632;SDS011;63139;52.018;8.552;2023-11-19T10:56:06;19.52;;;3.72;;
74632;SDS011;63139;52.018;8.552;2023-11-19T10:58:38;23.45;;;4.40;;
74632;SDS011;63139;52.018;8.552;2023-11-19T11:01:13;21.88;;;4.28;;
74632;SDS011;63139;52.018;8.552;2023-11-19T11:03:46;27.60;;;4.63;;
74632;SDS011;63139;52.018;8.552;2023-11-19T11:06:16;26.13;;;3.88;;
74632;SDS011;63139;52.018;8.552;2023-11-19T11:08:45;23.50;;;4.30;;
74632;SDS011;63139;52.018;8.552;2023-11-19T11:11:15;18.70;;;3.80;;
74632;SDS011;63139;52.018;8.552;2023-11-19T11:13:43;18.45;;;3.58;;
74632;SDS011;63139;52.018;8.552;2023-11-19T11:16:12;20.38;;;4.28;;
74632;SDS011;63139;52.018;8.552;2023-11-19T11:18:42;21.77;;;3.58;;
74632;SDS011;63139;52.018;8.552;2023-11-19T11:21:13;24.60;;;3.33;;
74632;SDS011;63139;52.018;8.552;2023-11-19T11:23:52;21.75;;;4.40;;
74632;SDS011;63139;52.018;8.552;2023-11-19T11:29:58;16.92;;;3.80;;
74632;SDS011;63139;52.018;8.552;2023-11-19T11:32:37;22.38;;;3.95;;
74632;SDS011;63139;52.018;8.552;2023-11-19T11:35:15;20.05;;;4.15;;
74632;SDS011;63139;52.018;8.552;2023-11-19T11:37:53;25.25;;;4.22;;
74632;SDS011;63139;52.018;8.552;2023-11-19T11:40:29;26.23;;;4.07;;
74632;SDS011;63139;52.018;8.552;2023-11-19T11:42:58;18.98;;;3.00;;
74632;SDS011;63139;52.018;8.552;2023-11-19T11:45:35;20.42;;;3.40;;
74632;SDS011;63139;52.018;8.552;2023-11-19T11:48:10;24.05;;;4.28;;
74632;SDS011;63139;52.018;8.552;2023-11-19T11:50:49;21.95;;;4.05;;
74632;SDS011;63139;52.018;8.552;2023-11-19T11:53:19;21.70;;;3.80;;
74632;SDS011;63139;52.018;8.552;2023-11-19T11:55:55;19.02;;;3.92;;
74632;SDS011;63139;52.018;8.552;2023-11-19T11:58:26;22.05;;;3.78;;
74632;SDS011;63139;52.018;8.552;2023-11-19T12:01:04;21.33;;;3.78;;
74632;SDS011;63139;52.018;8.552;2023-11-19T12:03:37;20.52;;;3.65;;
74632;SDS011;63139;52.018;8.552;2023-11-19T12:06:05;23.27;;;3.65;;
74632;SDS011;63139;52.018;8.552;2023-11-19T12:08:34;26.35;;;4.60;;
74632;SDS011;63139;52.018;8.552;2023-11-19T12:11:20;19.58;;;3.35;;
74632;SDS011;63139;52.018;8.552;2023-11-19T12:13:55;23.90;;;3.88;;
74632;SDS011;63139;52.018;8.552;2023-11-19T12:16:25;21.10;;;4.20;;
74632;SDS011;63139;52.018;8.552;2023-11-19T12:18:55;26.30;;;3.97;;
74632;SDS011;63139;52.018;8.552;2023-11-19T12:21:27;19.80;;;3.95;;
74632;SDS011;63139;52.018;8.552;2023-11-19T12:23:57;23.67;;;4.53;;
74632;SDS011;63139;52.018;8.552;2023-11-19T12:26:32;30.08;;;3.50;;
74632;SDS011;63139;52.018;8.552;2023-11-19T12:29:01;23.73;;;4.07;;
74632;SDS011;63139;52.018;8.552;2023-11-19T12:31:34;20.92;;;4.07;;
74632;SDS011;63139;52.018;8.552;2023-11-19T12:34:09;29.35;;;4.32;;
74632;SDS011;63139;52.018;8.552;2023-11-19T12:36:40;25.45;;;4.75;;
74632;SDS011;63139;52.018;8.552;2023-11-19T12:39:09;21.30;;;3.63;;
74632;SDS011;63139;52.018;8.552;2023-11-19T12:41:50;21.35;;;4.20;;
74632;SDS011;63139;52.018;8.552;2023-11-19T12:44:21;18.23;;;3.15;;
74632;SDS011;63139;52.018;8.552;2023-11-19T12:47:02;21.63;;;3.92;;
74632;SDS011;63139;52.018;8.552;2023-11-19T12:49:32;17.58;;;3.85;;
74632;SDS011;63139;52.018;8.552;2023-11-19T12:52:00;22.88;;;3.72;;
74632;SDS011;63139;52.018;8.552;2023-11-19T12:54:31;17.85;;;3.67;;
74632;SDS011;63139;52.018;8.552;2023-11-19T12:57:01;23.67;;;4.20;;
74632;SDS011;63139;52.018;8.552;2023-11-19T12:59:29;23.10;;;4.47;;
74632;SDS011;63139;52.018;8.552;2023-11-19T13:01:57;25.40;;;3.88;;
74632;SDS011;63139;52.018;8.552;2023-11-19T13:04:27;25.85;;;3.90;;
74632;SDS011;63139;52.018;8.552;2023-11-19T13:06:57;20.30;;;3.13;;
74632;SDS011;63139;52.018;8.552;2023-11-19T13:09:27;22.25;;;3.65;;
74632;SDS011;63139;52.018;8.552;2023-11-19T13:11:56;23.02;;;4.13;;
74632;SDS011;63139;52.018;8.552;2023-11-19T13:14:36;20.13;;;3.45;;
74632;SDS011;63139;52.018;8.552;2023-11-19T13:17:05;20.40;;;3.72;;
74632;SDS011;63139;52.018;8.552;2023-11-19T13:19:33;16.88;;;3.35;;
74632;SDS011;63139;52.018;8.552;2023-11-19T13:22:01;18.00;;;3.47;;
74632;SDS011;63139;52.018;8.552;2023-11-19T13:24:29;15.55;;;3.45;;
74632;SDS011;63139;52.018;8.552;2023-11-19T13:26:56;18.17;;;3.53;;
74632;SDS011;63139;52.018;8.552;2023-11-19T13:29:24;21.73;;;3.45;;
74632;SDS011;63139;52.018;8.552;2023-11-19T13:31:56;19.23;;;3.80;;
74632;SDS011;63139;52.018;8.552;2023-11-19T13:34:24;16.35;;;3.33;;
74632;SDS011;63139;52.018;8.552;2023-11-19T13:36:52;18.58;;;3.75;;
74632;SDS011;63139;52.018;8.552;2023-11-19T13:39:20;18.08;;;3.63;;
74632;SDS011;63139;52.018;8.552;2023-11-19T13:41:50;19.88;;;4.35;;
74632;SDS011;63139;52.018;8.552;2023-11-19T13:44:18;16.13;;;3.40;;
74632;SDS011;63139;52.018;8.552;2023-11-19T13:46:45;17.08;;;3.08;;
74632;SDS011;63139;52.018;8.552;2023-11-19T13:49:15;22.15;;;4.18;;
74632;SDS011;63139;52.018;8.552;2023-11-19T13:51:42;16.50;;;3.60;;
74632;SDS011;63139;52.018;8.552;2023-11-19T13:54:10;18.55;;;3.50;;
74632;SDS011;63139;52.018;8.552;2023-11-19T13:56:40;22.23;;;4.13;;
74632;SDS011;63139;52.018;8.552;2023-11-19T13:59:10;18.70;;;4.32;;
74632;SDS011;63139;52.018;8.552;2023-11-19T14:01:38;18.38;;;3.45;;
74632;SDS011;63139;52.018;8.552;2023-11-19T14:04:06;19.85;;;3.58;;
74632;SDS011;63139;52.018;8.552;2023-11-19T14:06:36;22.52;;;4.40;;
74632;SDS011;63139;52.018;8.552;2023-11-19T14:09:06;22.42;;;3.63;;
74632;SDS011;63139;52.018;8.552;2023-11-19T14:11:34;16.67;;;3.30;;
74632;SDS011;63139;52.018;8.552;2023-11-19T14:14:02;15.85;;;3.63;;
74632;SDS011;63139;52.018;8.552;2023-11-19T14:16:30;21.02;;;4.00;;
74632;SDS011;63139;52.018;8.552;2023-11-19T14:18:58;25.95;;;4.57;;
74632;SDS011;63139;52.018;8.552;2023-11-19T14:21:26;15.45;;;3.17;;
74632;SDS011;63139;52.018;8.552;2023-11-19T14:23:55;15.63;;;3.67;;
74632;SDS011;63139;52.018;8.552;2023-11-19T14:26:23;15.77;;;3.30;;
74632;SDS011;63139;52.018;8.552;2023-11-19T14:28:51;17.98;;;3.13;;
74632;SDS011;63139;52.018;8.552;2023-11-19T14:31:21;10.20;;;2.70;;
74632;SDS011;63139;52.018;8.552;2023-11-19T14:33:49;23.42;;;4.80;;
74632;SDS011;63139;52.018;8.552;2023-11-19T14:36:17;20.73;;;4.05;;
74632;SDS011;63139;52.018;8.552;2023-11-19T14:38:45;19.00;;;3.25;;
74632;SDS011;63139;52.018;8.552;2023-11-19T14:41:14;24.23;;;3.75;;
74632;SDS011;63139;52.018;8.552;2023-11-19T14:43:42;18.65;;;3.53;;
74632;SDS011;63139;52.018;8.552;2023-11-19T14:46:10;15.50;;;3.10;;
74632;SDS011;63139;52.018;8.552;2023-11-19T14:48:37;17.20;;;2.95;;
74632;SDS011;63139;52.018;8.552;2023-11-19T14:51:05;15.18;;;3.78;;
74632;SDS011;63139;52.018;8.552;2023-11-19T14:53:33;10.63;;;2.70;;
74632;SDS011;63139;52.018;8.552;2023-11-19T14:56:01;14.23;;;3.00;;
74632;SDS011;63139;52.018;8.552;2023-11-19T14:58:32;13.75;;;3.30;;
74632;SDS011;63139;52.018;8.552;2023-11-19T15:01:00;17.95;;;3.20;;
74632;SDS011;63139;52.018;8.552;2023-11-19T15:03:30;13.23;;;2.92;;